sensor_id;sensor_type;location;lat;lon;timestamp;P1;durP1;ratioP1;P2;durP2;ratioP2
76964;SDS011;65903;51.452;7.198;2023-04-24T00:00:34;1.77;;;1.50;;
76964;SDS011;65903;51.452;7.198;2023-04-24T00:01:38;1.67;;;1.20;;
76964;SDS011;65903;51.452;7.198;2023-04-24T00:02:42;1.67;;;1.33;;
76964;SDS011;65903;51.452;7.198;2023-04-24T00:03:47;2.13;;;1.40;;
76964;SDS011;65903;51.452;7.198;2023-04-24T00:04:48;3.35;;;1.55;;
76964;SDS011;65903;51.452;7.198;2023-04-24T00:05:49;2.63;;;1.40;;
76964;SDS011;65903;51.452;7.198;2023-04-24T00:06:50;3.20;;;1.52;;
76964;SDS011;65903;51.452;7.198;2023-04-24T00:07:54;2.30;;;1.50;;
76964;SDS011;65903;51.452;7.198;2023-04-24T00:08:58;1.77;;;1.58;;
76964;SDS011;65903;51.452;7.198;2023-04-24T00:10:01;2.38;;;1.73;;
76964;SDS011;65903;51.452;7.198;2023-04-24T00:11:02;2.20;;;1.40;;
76964;SDS011;65903;51.452;7.198;2023-04-24T00:12:03;3.33;;;1.58;;
76964;SDS011;65903;51.452;7.198;2023-04-24T00:13:04;2.15;;;1.40;;
76964;SDS011;65903;51.452;7.198;2023-04-24T00:14:07;2.03;;;1.50;;
76964;SDS011;65903;51.452;7.198;2023-04-24T00:15:08;1.65;;;1.30;;
76964;SDS011;65903;51.452;7.198;2023-04-24T00:16:09;2.50;;;1.70;;
76964;SDS011;65903;51.452;7.198;2023-04-24T00:17:15;2.88;;;1.83;;
76964;SDS011;65903;51.452;7.198;2023-04-24T00:18:16;3.20;;;1.50;;
76964;SDS011;65903;51.452;7.198;2023-04-24T00:19:17;2.05;;;1.73;;
76964;SDS011;65903;51.452;7.198;2023-04-24T00:20:18;2.35;;;1.52;;
76964;SDS011;65903;51.452;7.198;2023-04-24T00:21:25;2.72;;;1.73;;
76964;SDS011;65903;51.452;7.198;2023-04-24T00:22:27;1.85;;;1.60;;
76964;SDS011;65903;51.452;7.198;2023-04-24T00:23:28;2.00;;;1.50;;
76964;SDS011;65903;51.452;7.198;2023-04-24T00:24:29;3.00;;;1.70;;
76964;SDS011;65903;51.452;7.198;2023-04-24T00:25:30;2.72;;;1.70;;
76964;SDS011;65903;51.452;7.198;2023-04-24T00:26:31;3.22;;;1.90;;
76964;SDS011;65903;51.452;7.198;2023-04-24T00:27:32;2.22;;;1.60;;
76964;SDS011;65903;51.452;7.198;2023-04-24T00:28:37;3.13;;;1.90;;
76964;SDS011;65903;51.452;7.198;2023-04-24T00:29:38;2.45;;;1.90;;
76964;SDS011;65903;51.452;7.198;2023-04-24T00:30:38;2.35;;;1.58;;
76964;SDS011;65903;51.452;7.198;2023-04-24T00:31:40;2.70;;;1.70;;
76964;SDS011;65903;51.452;7.198;2023-04-24T00:32:41;3.75;;;1.90;;
76964;SDS011;65903;51.452;7.198;2023-04-24T00:34:44;1.75;;;1.55;;
76964;SDS011;65903;51.452;7.198;2023-04-24T00:35:47;3.92;;;1.40;;
76964;SDS011;65903;51.452;7.198;2023-04-24T00:36:48;2.40;;;1.60;;
76964;SDS011;65903;51.452;7.198;2023-04-24T00:37:52;2.20;;;1.70;;
76964;SDS011;65903;51.452;7.198;2023-04-24T00:38:54;2.45;;;1.60;;
76964;SDS011;65903;51.452;7.198;2023-04-24T00:39:55;2.80;;;1.80;;
76964;SDS011;65903;51.452;7.198;2023-04-24T00:40:56;2.05;;;1.65;;
76964;SDS011;65903;51.452;7.198;2023-04-24T00:41:59;2.40;;;1.60;;
76964;SDS011;65903;51.452;7.198;2023-04-24T00:43:00;3.20;;;1.83;;
76964;SDS011;65903;51.452;7.198;2023-04-24T00:44:03;2.45;;;1.63;;
76964;SDS011;65903;51.452;7.198;2023-04-24T00:45:04;2.80;;;1.88;;
76964;SDS011;65903;51.452;7.198;2023-04-24T00:46:05;2.42;;;1.73;;
76964;SDS011;65903;51.452;7.198;2023-04-24T00:47:09;3.10;;;1.70;;
76964;SDS011;65903;51.452;7.198;2023-04-24T00:48:09;4.35;;;2.10;;
76964;SDS011;65903;51.452;7.198;2023-04-24T00:49:16;5.78;;;1.70;;
76964;SDS011;65903;51.452;7.198;2023-04-24T00:50:20;3.05;;;1.70;;
76964;SDS011;65903;51.452;7.198;2023-04-24T00:51:23;3.10;;;1.70;;
76964;SDS011;65903;51.452;7.198;2023-04-24T00:52:24;2.97;;;1.70;;
76964;SDS011;65903;51.452;7.198;2023-04-24T00:53:28;2.95;;;1.73;;
76964;SDS011;65903;51.452;7.198;2023-04-24T00:54:32;3.83;;;1.80;;
76964;SDS011;65903;51.452;7.198;2023-04-24T00:55:32;3.65;;;1.90;;
76964;SDS011;65903;51.452;7.198;2023-04-24T00:56:33;2.33;;;1.70;;
76964;SDS011;65903;51.452;7.198;2023-04-24T00:57:37;2.58;;;1.80;;
76964;SDS011;65903;51.452;7.198;2023-04-24T00:58:38;3.90;;;2.00;;
76964;SDS011;65903;51.452;7.198;2023-04-24T00:59:40;3.67;;;1.83;;
76964;SDS011;65903;51.452;7.198;2023-04-24T01:00:43;2.28;;;1.90;;
76964;SDS011;65903;51.452;7.198;2023-04-24T01:01:45;3.60;;;1.95;;
76964;SDS011;65903;51.452;7.198;2023-04-24T01:02:46;3.20;;;1.90;;
76964;SDS011;65903;51.452;7.198;2023-04-24T01:03:50;2.88;;;1.70;;
76964;SDS011;65903;51.452;7.198;2023-04-24T01:04:51;4.63;;;1.70;;
76964;SDS011;65903;51.452;7.198;2023-04-24T01:05:52;2.50;;;1.88;;
76964;SDS011;65903;51.452;7.198;2023-04-24T01:06:55;3.78;;;1.70;;
76964;SDS011;65903;51.452;7.198;2023-04-24T01:07:56;2.90;;;1.92;;
76964;SDS011;65903;51.452;7.198;2023-04-24T01:09:00;3.17;;;1.83;;
76964;SDS011;65903;51.452;7.198;2023-04-24T01:10:01;3.15;;;1.95;;
76964;SDS011;65903;51.452;7.198;2023-04-24T01:11:02;2.30;;;1.70;;
76964;SDS011;65903;51.452;7.198;2023-04-24T01:12:04;3.10;;;2.25;;
76964;SDS011;65903;51.452;7.198;2023-04-24T01:13:04;3.22;;;2.42;;
76964;SDS011;65903;51.452;7.198;2023-04-24T01:14:05;3.58;;;1.90;;
76964;SDS011;65903;51.452;7.198;2023-04-24T01:15:06;2.92;;;2.00;;
76964;SDS011;65903;51.452;7.198;2023-04-24T01:16:08;2.70;;;1.90;;
76964;SDS011;65903;51.452;7.198;2023-04-24T01:17:09;2.72;;;2.25;;
76964;SDS011;65903;51.452;7.198;2023-04-24T01:18:09;2.05;;;1.63;;
76964;SDS011;65903;51.452;7.198;2023-04-24T01:19:11;4.50;;;2.10;;
76964;SDS011;65903;51.452;7.198;2023-04-24T01:20:14;3.78;;;1.85;;
76964;SDS011;65903;51.452;7.198;2023-04-24T01:21:16;2.50;;;1.90;;
76964;SDS011;65903;51.452;7.198;2023-04-24T01:22:16;4.25;;;2.05;;
76964;SDS011;65903;51.452;7.198;2023-04-24T01:23:22;2.80;;;2.00;;
76964;SDS011;65903;51.452;7.198;2023-04-24T01:24:22;3.85;;;2.28;;
76964;SDS011;65903;51.452;7.198;2023-04-24T01:25:26;2.80;;;2.00;;
76964;SDS011;65903;51.452;7.198;2023-04-24T01:26:30;2.95;;;1.85;;
76964;SDS011;65903;51.452;7.198;2023-04-24T01:27:32;2.72;;;1.98;;
76964;SDS011;65903;51.452;7.198;2023-04-24T01:28:32;2.72;;;2.00;;
76964;SDS011;65903;51.452;7.198;2023-04-24T01:29:36;3.65;;;1.83;;
76964;SDS011;65903;51.452;7.198;2023-04-24T01:30:39;3.20;;;2.45;;
76964;SDS011;65903;51.452;7.198;2023-04-24T01:31:40;4.00;;;2.00;;
76964;SDS011;65903;51.452;7.198;2023-04-24T01:32:41;3.20;;;2.00;;
76964;SDS011;65903;51.452;7.198;2023-04-24T01:33:46;2.80;;;1.95;;
76964;SDS011;65903;51.452;7.198;2023-04-24T01:34:48;3.03;;;1.80;;
76964;SDS011;65903;51.452;7.198;2023-04-24T01:35:51;3.00;;;1.85;;
76964;SDS011;65903;51.452;7.198;2023-04-24T01:36:57;2.50;;;2.00;;
76964;SDS011;65903;51.452;7.198;2023-04-24T01:37:58;3.72;;;2.00;;
76964;SDS011;65903;51.452;7.198;2023-04-24T01:38:59;3.95;;;2.10;;
76964;SDS011;65903;51.452;7.198;2023-04-24T01:40:04;5.95;;;2.13;;
76964;SDS011;65903;51.452;7.198;2023-04-24T01:41:07;2.90;;;2.10;;
76964;SDS011;65903;51.452;7.198;2023-04-24T01:42:10;3.88;;;2.35;;
76964;SDS011;65903;51.452;7.198;2023-04-24T01:43:15;2.97;;;2.10;;
76964;SDS011;65903;51.452;7.198;2023-04-24T01:44:18;3.03;;;2.40;;
76964;SDS011;65903;51.452;7.198;2023-04-24T01:45:19;3.13;;;2.30;;
76964;SDS011;65903;51.452;7.198;2023-04-24T01:46:20;3.08;;;2.20;;
76964;SDS011;65903;51.452;7.198;2023-04-24T01:47:25;3.63;;;2.38;;
76964;SDS011;65903;51.452;7.198;2023-04-24T01:48:26;4.35;;;2.47;;
76964;SDS011;65903;51.452;7.198;2023-04-24T01:49:27;3.00;;;2.40;;
76964;SDS011;65903;51.452;7.198;2023-04-24T01:50:30;3.08;;;2.47;;
76964;SDS011;65903;51.452;7.198;2023-04-24T01:51:31;3.30;;;2.53;;
76964;SDS011;65903;51.452;7.198;2023-04-24T01:52:32;2.78;;;2.13;;
76964;SDS011;65903;51.452;7.198;2023-04-24T01:53:33;4.40;;;2.97;;
76964;SDS011;65903;51.452;7.198;2023-04-24T01:54:34;4.90;;;2.50;;
76964;SDS011;65903;51.452;7.198;2023-04-24T01:55:35;3.35;;;2.50;;
76964;SDS011;65903;51.452;7.198;2023-04-24T01:56:38;3.83;;;2.47;;
76964;SDS011;65903;51.452;7.198;2023-04-24T01:57:45;3.40;;;2.40;;
76964;SDS011;65903;51.452;7.198;2023-04-24T01:58:48;3.42;;;2.45;;
76964;SDS011;65903;51.452;7.198;2023-04-24T01:59:51;3.30;;;2.60;;
76964;SDS011;65903;51.452;7.198;2023-04-24T02:00:52;3.72;;;2.63;;
76964;SDS011;65903;51.452;7.198;2023-04-24T02:01:54;3.70;;;2.50;;
76964;SDS011;65903;51.452;7.198;2023-04-24T02:03:58;3.67;;;2.60;;
76964;SDS011;65903;51.452;7.198;2023-04-24T02:04:59;3.03;;;2.50;;
76964;SDS011;65903;51.452;7.198;2023-04-24T02:06:00;4.15;;;2.60;;
76964;SDS011;65903;51.452;7.198;2023-04-24T02:07:01;3.78;;;2.30;;
76964;SDS011;65903;51.452;7.198;2023-04-24T02:08:04;4.20;;;2.42;;
76964;SDS011;65903;51.452;7.198;2023-04-24T02:09:05;3.33;;;2.60;;
76964;SDS011;65903;51.452;7.198;2023-04-24T02:10:06;5.50;;;3.40;;
76964;SDS011;65903;51.452;7.198;2023-04-24T02:11:09;3.92;;;3.38;;
76964;SDS011;65903;51.452;7.198;2023-04-24T02:12:10;4.88;;;3.20;;
76964;SDS011;65903;51.452;7.198;2023-04-24T02:13:11;5.75;;;3.33;;
76964;SDS011;65903;51.452;7.198;2023-04-24T02:14:11;4.72;;;3.58;;
76964;SDS011;65903;51.452;7.198;2023-04-24T02:15:14;5.70;;;4.40;;
76964;SDS011;65903;51.452;7.198;2023-04-24T02:16:15;5.85;;;4.07;;
76964;SDS011;65903;51.452;7.198;2023-04-24T02:17:19;6.40;;;4.20;;
76964;SDS011;65903;51.452;7.198;2023-04-24T02:18:19;6.05;;;4.07;;
76964;SDS011;65903;51.452;7.198;2023-04-24T02:19:21;7.30;;;3.70;;
76964;SDS011;65903;51.452;7.198;2023-04-24T02:20:21;6.15;;;4.55;;
76964;SDS011;65903;51.452;7.198;2023-04-24T02:21:25;5.55;;;4.00;;
76964;SDS011;65903;51.452;7.198;2023-04-24T02:22:26;7.95;;;4.20;;
76964;SDS011;65903;51.452;7.198;2023-04-24T02:23:26;6.75;;;4.32;;
76964;SDS011;65903;51.452;7.198;2023-04-24T02:24:27;9.20;;;4.75;;
76964;SDS011;65903;51.452;7.198;2023-04-24T02:25:28;6.78;;;4.57;;
76964;SDS011;65903;51.452;7.198;2023-04-24T02:26:29;7.90;;;4.43;;
76964;SDS011;65903;51.452;7.198;2023-04-24T02:27:32;6.43;;;4.63;;
76964;SDS011;65903;51.452;7.198;2023-04-24T02:29:40;6.68;;;4.60;;
76964;SDS011;65903;51.452;7.198;2023-04-24T02:30:40;7.22;;;5.28;;
76964;SDS011;65903;51.452;7.198;2023-04-24T02:31:41;7.70;;;5.20;;
76964;SDS011;65903;51.452;7.198;2023-04-24T02:32:44;6.97;;;4.90;;
76964;SDS011;65903;51.452;7.198;2023-04-24T02:33:47;6.90;;;5.38;;
76964;SDS011;65903;51.452;7.198;2023-04-24T02:34:51;6.80;;;4.72;;
76964;SDS011;65903;51.452;7.198;2023-04-24T02:35:51;7.30;;;4.55;;
76964;SDS011;65903;51.452;7.198;2023-04-24T02:36:55;8.77;;;5.63;;
76964;SDS011;65903;51.452;7.198;2023-04-24T02:37:55;7.40;;;4.75;;
76964;SDS011;65903;51.452;7.198;2023-04-24T02:38:58;7.78;;;5.43;;
76964;SDS011;65903;51.452;7.198;2023-04-24T02:40:00;7.95;;;5.20;;
76964;SDS011;65903;51.452;7.198;2023-04-24T02:41:00;9.43;;;4.95;;
76964;SDS011;65903;51.452;7.198;2023-04-24T02:42:06;9.02;;;5.55;;
76964;SDS011;65903;51.452;7.198;2023-04-24T02:43:08;8.32;;;5.10;;
76964;SDS011;65903;51.452;7.198;2023-04-24T02:44:12;7.85;;;5.60;;
76964;SDS011;65903;51.452;7.198;2023-04-24T02:45:12;8.05;;;5.43;;
76964;SDS011;65903;51.452;7.198;2023-04-24T02:46:13;8.43;;;5.18;;
76964;SDS011;65903;51.452;7.198;2023-04-24T02:47:16;9.35;;;5.30;;
76964;SDS011;65903;51.452;7.198;2023-04-24T02:48:17;10.82;;;5.72;;
76964;SDS011;65903;51.452;7.198;2023-04-24T02:49:21;8.20;;;5.85;;
76964;SDS011;65903;51.452;7.198;2023-04-24T02:50:22;8.20;;;5.32;;
76964;SDS011;65903;51.452;7.198;2023-04-24T02:51:23;10.18;;;5.50;;
76964;SDS011;65903;51.452;7.198;2023-04-24T02:52:23;9.00;;;5.60;;
76964;SDS011;65903;51.452;7.198;2023-04-24T02:53:26;8.48;;;5.35;;
76964;SDS011;65903;51.452;7.198;2023-04-24T02:54:29;10.88;;;6.13;;
76964;SDS011;65903;51.452;7.198;2023-04-24T02:55:33;10.85;;;5.85;;
76964;SDS011;65903;51.452;7.198;2023-04-24T02:56:36;9.13;;;5.93;;
76964;SDS011;65903;51.452;7.198;2023-04-24T02:57:39;15.48;;;6.45;;
76964;SDS011;65903;51.452;7.198;2023-04-24T02:58:40;10.90;;;6.68;;
76964;SDS011;65903;51.452;7.198;2023-04-24T02:59:41;13.02;;;6.00;;
76964;SDS011;65903;51.452;7.198;2023-04-24T03:00:46;9.80;;;5.97;;
76964;SDS011;65903;51.452;7.198;2023-04-24T03:01:47;10.02;;;6.13;;
76964;SDS011;65903;51.452;7.198;2023-04-24T03:02:48;11.77;;;6.47;;
76964;SDS011;65903;51.452;7.198;2023-04-24T03:03:50;8.95;;;6.20;;
76964;SDS011;65903;51.452;7.198;2023-04-24T03:04:50;10.18;;;5.88;;
76964;SDS011;65903;51.452;7.198;2023-04-24T03:05:51;9.70;;;6.22;;
76964;SDS011;65903;51.452;7.198;2023-04-24T03:06:55;10.10;;;5.35;;
76964;SDS011;65903;51.452;7.198;2023-04-24T03:07:59;11.40;;;6.25;;
76964;SDS011;65903;51.452;7.198;2023-04-24T03:09:00;9.45;;;6.05;;
76964;SDS011;65903;51.452;7.198;2023-04-24T03:10:00;10.02;;;6.55;;
76964;SDS011;65903;51.452;7.198;2023-04-24T03:11:01;11.13;;;5.72;;
76964;SDS011;65903;51.452;7.198;2023-04-24T03:12:02;8.18;;;5.65;;
76964;SDS011;65903;51.452;7.198;2023-04-24T03:13:05;9.27;;;6.10;;
76964;SDS011;65903;51.452;7.198;2023-04-24T03:15:06;12.23;;;6.60;;
76964;SDS011;65903;51.452;7.198;2023-04-24T03:16:08;13.65;;;6.70;;
76964;SDS011;65903;51.452;7.198;2023-04-24T03:17:08;7.68;;;5.55;;
76964;SDS011;65903;51.452;7.198;2023-04-24T03:18:09;8.63;;;6.50;;
76964;SDS011;65903;51.452;7.198;2023-04-24T03:20:13;10.02;;;5.47;;
76964;SDS011;65903;51.452;7.198;2023-04-24T03:21:14;11.77;;;5.65;;
76964;SDS011;65903;51.452;7.198;2023-04-24T03:22:15;11.07;;;6.32;;
76964;SDS011;65903;51.452;7.198;2023-04-24T03:23:16;11.93;;;6.13;;
76964;SDS011;65903;51.452;7.198;2023-04-24T03:24:17;11.45;;;6.22;;
76964;SDS011;65903;51.452;7.198;2023-04-24T03:25:17;11.02;;;6.47;;
76964;SDS011;65903;51.452;7.198;2023-04-24T03:26:21;7.25;;;4.97;;
76964;SDS011;65903;51.452;7.198;2023-04-24T03:27:21;10.20;;;6.30;;
76964;SDS011;65903;51.452;7.198;2023-04-24T03:28:22;8.70;;;6.43;;
76964;SDS011;65903;51.452;7.198;2023-04-24T03:29:25;13.60;;;6.43;;
76964;SDS011;65903;51.452;7.198;2023-04-24T03:30:26;10.40;;;6.40;;
76964;SDS011;65903;51.452;7.198;2023-04-24T03:31:27;10.02;;;7.00;;
76964;SDS011;65903;51.452;7.198;2023-04-24T03:32:32;9.45;;;6.85;;
76964;SDS011;65903;51.452;7.198;2023-04-24T03:33:35;10.43;;;6.57;;
76964;SDS011;65903;51.452;7.198;2023-04-24T03:34:38;11.40;;;6.55;;
76964;SDS011;65903;51.452;7.198;2023-04-24T03:35:39;12.15;;;6.82;;
76964;SDS011;65903;51.452;7.198;2023-04-24T03:36:40;10.57;;;6.60;;
76964;SDS011;65903;51.452;7.198;2023-04-24T03:37:41;9.85;;;7.32;;
76964;SDS011;65903;51.452;7.198;2023-04-24T03:38:41;10.15;;;7.03;;
76964;SDS011;65903;51.452;7.198;2023-04-24T03:39:45;12.63;;;6.90;;
76964;SDS011;65903;51.452;7.198;2023-04-24T03:40:48;11.57;;;6.75;;
76964;SDS011;65903;51.452;7.198;2023-04-24T03:41:49;12.27;;;7.40;;
76964;SDS011;65903;51.452;7.198;2023-04-24T03:42:50;11.35;;;7.45;;
76964;SDS011;65903;51.452;7.198;2023-04-24T03:43:50;12.40;;;8.18;;
76964;SDS011;65903;51.452;7.198;2023-04-24T03:44:51;13.45;;;7.43;;
76964;SDS011;65903;51.452;7.198;2023-04-24T03:45:52;10.27;;;6.05;;
76964;SDS011;65903;51.452;7.198;2023-04-24T03:46:53;13.15;;;7.18;;
76964;SDS011;65903;51.452;7.198;2023-04-24T03:47:56;14.23;;;7.60;;
76964;SDS011;65903;51.452;7.198;2023-04-24T03:48:59;12.93;;;7.03;;
76964;SDS011;65903;51.452;7.198;2023-04-24T03:50:00;10.23;;;7.45;;
76964;SDS011;65903;51.452;7.198;2023-04-24T03:51:01;13.65;;;7.40;;
76964;SDS011;65903;51.452;7.198;2023-04-24T03:52:02;10.65;;;7.22;;
76964;SDS011;65903;51.452;7.198;2023-04-24T03:53:05;9.45;;;6.78;;
76964;SDS011;65903;51.452;7.198;2023-04-24T03:54:05;14.02;;;8.57;;
76964;SDS011;65903;51.452;7.198;2023-04-24T03:55:06;13.00;;;8.07;;
76964;SDS011;65903;51.452;7.198;2023-04-24T03:56:07;14.55;;;7.78;;
76964;SDS011;65903;51.452;7.198;2023-04-24T03:57:08;9.77;;;7.07;;
76964;SDS011;65903;51.452;7.198;2023-04-24T03:58:09;14.05;;;8.40;;
76964;SDS011;65903;51.452;7.198;2023-04-24T03:59:09;16.30;;;8.07;;
76964;SDS011;65903;51.452;7.198;2023-04-24T04:00:10;12.10;;;7.82;;
76964;SDS011;65903;51.452;7.198;2023-04-24T04:01:11;12.73;;;7.40;;
76964;SDS011;65903;51.452;7.198;2023-04-24T04:02:12;13.68;;;7.43;;
76964;SDS011;65903;51.452;7.198;2023-04-24T04:03:12;16.67;;;8.02;;
76964;SDS011;65903;51.452;7.198;2023-04-24T04:04:15;12.20;;;8.20;;
76964;SDS011;65903;51.452;7.198;2023-04-24T04:05:18;11.82;;;9.13;;
76964;SDS011;65903;51.452;7.198;2023-04-24T04:08:22;11.60;;;7.38;;
76964;SDS011;65903;51.452;7.198;2023-04-24T04:09:26;15.63;;;7.75;;
76964;SDS011;65903;51.452;7.198;2023-04-24T04:10:27;12.02;;;7.25;;
76964;SDS011;65903;51.452;7.198;2023-04-24T04:11:27;10.85;;;7.60;;
76964;SDS011;65903;51.452;7.198;2023-04-24T04:12:28;13.15;;;6.80;;
76964;SDS011;65903;51.452;7.198;2023-04-24T04:13:29;12.43;;;7.63;;
76964;SDS011;65903;51.452;7.198;2023-04-24T04:14:30;11.18;;;6.93;;
76964;SDS011;65903;51.452;7.198;2023-04-24T04:16:33;12.82;;;7.70;;
76964;SDS011;65903;51.452;7.198;2023-04-24T04:17:37;10.20;;;6.63;;
76964;SDS011;65903;51.452;7.198;2023-04-24T04:18:38;14.10;;;8.25;;
76964;SDS011;65903;51.452;7.198;2023-04-24T04:19:39;10.93;;;6.60;;
76964;SDS011;65903;51.452;7.198;2023-04-24T04:21:45;11.63;;;7.60;;
76964;SDS011;65903;51.452;7.198;2023-04-24T04:22:46;12.65;;;7.20;;
76964;SDS011;65903;51.452;7.198;2023-04-24T04:23:49;8.57;;;6.20;;
76964;SDS011;65903;51.452;7.198;2023-04-24T04:24:50;14.00;;;7.38;;
76964;SDS011;65903;51.452;7.198;2023-04-24T04:25:53;10.75;;;7.93;;
76964;SDS011;65903;51.452;7.198;2023-04-24T04:26:56;14.77;;;7.82;;
76964;SDS011;65903;51.452;7.198;2023-04-24T04:28:00;12.25;;;7.55;;
76964;SDS011;65903;51.452;7.198;2023-04-24T04:29:02;12.75;;;6.95;;
76964;SDS011;65903;51.452;7.198;2023-04-24T04:30:08;11.70;;;7.25;;
76964;SDS011;65903;51.452;7.198;2023-04-24T04:32:10;13.02;;;8.25;;
76964;SDS011;65903;51.452;7.198;2023-04-24T04:33:11;13.32;;;7.35;;
76964;SDS011;65903;51.452;7.198;2023-04-24T04:34:12;13.38;;;8.15;;
76964;SDS011;65903;51.452;7.198;2023-04-24T04:35:14;9.95;;;7.22;;
76964;SDS011;65903;51.452;7.198;2023-04-24T04:36:15;12.07;;;7.65;;
76964;SDS011;65903;51.452;7.198;2023-04-24T04:37:19;13.10;;;7.65;;
76964;SDS011;65903;51.452;7.198;2023-04-24T04:38:23;13.50;;;7.55;;
76964;SDS011;65903;51.452;7.198;2023-04-24T04:39:24;10.38;;;6.85;;
76964;SDS011;65903;51.452;7.198;2023-04-24T04:40:31;15.05;;;8.15;;
76964;SDS011;65903;51.452;7.198;2023-04-24T04:41:32;13.18;;;7.65;;
76964;SDS011;65903;51.452;7.198;2023-04-24T04:42:35;11.45;;;6.32;;
76964;SDS011;65903;51.452;7.198;2023-04-24T04:43:36;12.13;;;8.00;;
76964;SDS011;65903;51.452;7.198;2023-04-24T04:44:38;12.38;;;6.82;;
76964;SDS011;65903;51.452;7.198;2023-04-24T04:45:43;11.05;;;6.63;;
76964;SDS011;65903;51.452;7.198;2023-04-24T04:46:45;11.70;;;8.20;;
76964;SDS011;65903;51.452;7.198;2023-04-24T04:47:48;11.20;;;7.28;;
76964;SDS011;65903;51.452;7.198;2023-04-24T04:48:49;13.13;;;7.15;;
76964;SDS011;65903;51.452;7.198;2023-04-24T04:49:51;15.13;;;7.65;;
76964;SDS011;65903;51.452;7.198;2023-04-24T04:50:52;11.52;;;7.55;;
76964;SDS011;65903;51.452;7.198;2023-04-24T04:51:53;12.93;;;8.40;;
76964;SDS011;65903;51.452;7.198;2023-04-24T04:52:54;12.32;;;8.65;;
76964;SDS011;65903;51.452;7.198;2023-04-24T04:53:55;13.45;;;8.35;;
76964;SDS011;65903;51.452;7.198;2023-04-24T04:54:56;11.60;;;7.80;;
76964;SDS011;65903;51.452;7.198;2023-04-24T04:55:57;14.68;;;8.40;;
76964;SDS011;65903;51.452;7.198;2023-04-24T04:56:58;12.50;;;8.50;;
76964;SDS011;65903;51.452;7.198;2023-04-24T04:57:59;10.07;;;7.50;;
76964;SDS011;65903;51.452;7.198;2023-04-24T04:59:00;12.25;;;8.07;;
76964;SDS011;65903;51.452;7.198;2023-04-24T05:01:04;12.15;;;7.47;;
76964;SDS011;65903;51.452;7.198;2023-04-24T05:02:05;12.88;;;7.85;;
76964;SDS011;65903;51.452;7.198;2023-04-24T05:03:07;10.88;;;7.05;;
76964;SDS011;65903;51.452;7.198;2023-04-24T05:04:10;12.85;;;7.80;;
76964;SDS011;65903;51.452;7.198;2023-04-24T05:05:13;10.77;;;7.72;;
76964;SDS011;65903;51.452;7.198;2023-04-24T05:06:14;13.55;;;7.93;;
76964;SDS011;65903;51.452;7.198;2023-04-24T05:07:15;11.77;;;8.25;;
76964;SDS011;65903;51.452;7.198;2023-04-24T05:08:16;11.15;;;7.43;;
76964;SDS011;65903;51.452;7.198;2023-04-24T05:09:20;12.85;;;7.97;;
76964;SDS011;65903;51.452;7.198;2023-04-24T05:10:20;17.15;;;7.97;;
76964;SDS011;65903;51.452;7.198;2023-04-24T05:11:24;14.32;;;8.43;;
76964;SDS011;65903;51.452;7.198;2023-04-24T05:12:27;12.57;;;7.45;;
76964;SDS011;65903;51.452;7.198;2023-04-24T05:13:30;14.45;;;7.70;;
76964;SDS011;65903;51.452;7.198;2023-04-24T05:14:31;10.57;;;6.07;;
76964;SDS011;65903;51.452;7.198;2023-04-24T05:15:32;14.77;;;7.60;;
76964;SDS011;65903;51.452;7.198;2023-04-24T05:16:33;10.65;;;7.05;;
76964;SDS011;65903;51.452;7.198;2023-04-24T05:17:33;12.70;;;6.53;;
76964;SDS011;65903;51.452;7.198;2023-04-24T05:18:34;9.77;;;6.35;;
76964;SDS011;65903;51.452;7.198;2023-04-24T05:19:35;10.23;;;7.20;;
76964;SDS011;65903;51.452;7.198;2023-04-24T05:20:41;10.85;;;7.20;;
76964;SDS011;65903;51.452;7.198;2023-04-24T05:21:44;13.75;;;7.50;;
76964;SDS011;65903;51.452;7.198;2023-04-24T05:22:47;8.57;;;6.70;;
76964;SDS011;65903;51.452;7.198;2023-04-24T05:23:48;12.23;;;6.68;;
76964;SDS011;65903;51.452;7.198;2023-04-24T05:24:50;12.15;;;6.90;;
76964;SDS011;65903;51.452;7.198;2023-04-24T05:25:51;10.48;;;7.05;;
76964;SDS011;65903;51.452;7.198;2023-04-24T05:26:52;8.90;;;6.03;;
76964;SDS011;65903;51.452;7.198;2023-04-24T05:27:53;11.63;;;7.00;;
76964;SDS011;65903;51.452;7.198;2023-04-24T05:28:56;15.68;;;6.95;;
76964;SDS011;65903;51.452;7.198;2023-04-24T05:29:57;12.63;;;6.45;;
76964;SDS011;65903;51.452;7.198;2023-04-24T05:30:57;11.43;;;7.82;;
76964;SDS011;65903;51.452;7.198;2023-04-24T05:32:01;10.40;;;6.25;;
76964;SDS011;65903;51.452;7.198;2023-04-24T05:33:02;9.90;;;6.40;;
76964;SDS011;65903;51.452;7.198;2023-04-24T05:34:03;13.15;;;6.43;;
76964;SDS011;65903;51.452;7.198;2023-04-24T05:35:08;8.90;;;6.90;;
76964;SDS011;65903;51.452;7.198;2023-04-24T05:36:09;11.70;;;6.68;;
76964;SDS011;65903;51.452;7.198;2023-04-24T05:37:10;11.45;;;6.93;;
76964;SDS011;65903;51.452;7.198;2023-04-24T05:38:11;14.02;;;7.10;;
76964;SDS011;65903;51.452;7.198;2023-04-24T05:39:15;9.85;;;6.68;;
76964;SDS011;65903;51.452;7.198;2023-04-24T05:40:18;11.43;;;7.03;;
76964;SDS011;65903;51.452;7.198;2023-04-24T05:41:21;12.30;;;6.88;;
76964;SDS011;65903;51.452;7.198;2023-04-24T05:42:27;11.02;;;7.03;;
76964;SDS011;65903;51.452;7.198;2023-04-24T05:43:28;9.60;;;6.47;;
76964;SDS011;65903;51.452;7.198;2023-04-24T05:44:29;13.13;;;7.18;;
76964;SDS011;65903;51.452;7.198;2023-04-24T05:45:30;10.63;;;7.18;;
76964;SDS011;65903;51.452;7.198;2023-04-24T05:46:32;12.57;;;7.35;;
76964;SDS011;65903;51.452;7.198;2023-04-24T05:47:35;10.35;;;7.53;;
76964;SDS011;65903;51.452;7.198;2023-04-24T05:48:36;10.48;;;7.25;;
76964;SDS011;65903;51.452;7.198;2023-04-24T05:49:38;11.65;;;7.53;;
76964;SDS011;65903;51.452;7.198;2023-04-24T05:50:39;12.73;;;7.15;;
76964;SDS011;65903;51.452;7.198;2023-04-24T05:51:42;11.43;;;7.35;;
76964;SDS011;65903;51.452;7.198;2023-04-24T05:52:45;11.27;;;7.85;;
76964;SDS011;65903;51.452;7.198;2023-04-24T05:53:48;13.77;;;7.45;;
76964;SDS011;65903;51.452;7.198;2023-04-24T05:54:51;10.02;;;7.20;;
76964;SDS011;65903;51.452;7.198;2023-04-24T05:55:54;11.95;;;7.72;;
76964;SDS011;65903;51.452;7.198;2023-04-24T05:56:58;9.20;;;7.32;;
76964;SDS011;65903;51.452;7.198;2023-04-24T05:58:01;11.77;;;8.55;;
76964;SDS011;65903;51.452;7.198;2023-04-24T05:59:01;11.50;;;7.63;;
76964;SDS011;65903;51.452;7.198;2023-04-24T06:00:02;14.27;;;7.97;;
76964;SDS011;65903;51.452;7.198;2023-04-24T06:01:04;11.02;;;7.57;;
76964;SDS011;65903;51.452;7.198;2023-04-24T06:02:05;12.38;;;7.40;;
76964;SDS011;65903;51.452;7.198;2023-04-24T06:03:06;12.27;;;7.10;;
76964;SDS011;65903;51.452;7.198;2023-04-24T06:04:09;12.77;;;7.15;;
76964;SDS011;65903;51.452;7.198;2023-04-24T06:05:13;9.35;;;6.75;;
76964;SDS011;65903;51.452;7.198;2023-04-24T06:06:15;10.05;;;6.88;;
76964;SDS011;65903;51.452;7.198;2023-04-24T06:07:16;11.40;;;7.63;;
76964;SDS011;65903;51.452;7.198;2023-04-24T06:08:17;12.98;;;6.97;;
76964;SDS011;65903;51.452;7.198;2023-04-24T06:09:18;10.35;;;7.50;;
76964;SDS011;65903;51.452;7.198;2023-04-24T06:10:19;12.30;;;6.35;;
76964;SDS011;65903;51.452;7.198;2023-04-24T06:11:20;12.02;;;7.85;;
76964;SDS011;65903;51.452;7.198;2023-04-24T06:12:21;10.75;;;6.93;;
76964;SDS011;65903;51.452;7.198;2023-04-24T06:13:24;12.20;;;7.85;;
76964;SDS011;65903;51.452;7.198;2023-04-24T06:14:25;10.88;;;7.18;;
76964;SDS011;65903;51.452;7.198;2023-04-24T06:15:28;10.25;;;7.13;;
76964;SDS011;65903;51.452;7.198;2023-04-24T06:16:32;9.27;;;6.53;;
76964;SDS011;65903;51.452;7.198;2023-04-24T06:17:33;9.60;;;6.63;;
76964;SDS011;65903;51.452;7.198;2023-04-24T06:19:36;7.40;;;5.38;;
76964;SDS011;65903;51.452;7.198;2023-04-24T06:20:38;9.05;;;6.22;;
76964;SDS011;65903;51.452;7.198;2023-04-24T06:21:39;12.50;;;6.57;;
76964;SDS011;65903;51.452;7.198;2023-04-24T06:22:42;10.93;;;6.80;;